createdAt,value
2019-06-19T00:02:19.701Z,3.87
2019-06-19T00:05:17.781Z,3.73
2019-06-19T00:08:15.846Z,3.90
2019-06-19T00:11:13.906Z,3.93
2019-06-19T00:14:13.477Z,3.90
2019-06-19T00:17:13.013Z,4.40
2019-06-19T00:20:13.051Z,4.17
2019-06-19T00:23:12.497Z,3.33
2019-06-19T00:26:09.995Z,3.30
2019-06-19T00:29:08.082Z,3.93
2019-06-19T00:32:06.084Z,3.20
2019-06-19T00:35:03.961Z,3.40
2019-06-19T00:38:02.362Z,3.83
2019-06-19T00:41:00.794Z,3.63
2019-06-19T00:44:01.216Z,3.23
2019-06-19T00:47:00.736Z,3.60
2019-06-19T00:50:00.684Z,4.10
2019-06-19T00:52:58.380Z,3.27
2019-06-19T00:56:01.340Z,3.53
2019-06-19T00:59:01.448Z,2.67
2019-06-19T01:02:01.037Z,3.43
2019-06-19T01:05:00.608Z,3.10
2019-06-19T01:07:58.663Z,3.03
2019-06-19T01:10:56.345Z,2.73
2019-06-19T01:13:54.120Z,3.37
2019-06-19T01:16:51.799Z,3.30
2019-06-19T01:19:50.776Z,3.83
2019-06-19T01:22:51.528Z,3.30
2019-06-19T01:25:48.703Z,3.43
2019-06-19T01:28:46.406Z,3.60
2019-06-19T01:31:44.086Z,3.73
2019-06-19T01:34:42.556Z,4.23
2019-06-19T01:37:41.226Z,3.13
2019-06-19T01:40:41.641Z,3.53
2019-06-19T01:43:40.923Z,2.90
2019-06-19T01:46:40.827Z,3.33
2019-06-19T01:49:41.019Z,3.20
2019-06-19T01:52:41.260Z,2.87
2019-06-19T01:55:38.127Z,3.00
2019-06-19T01:58:36.174Z,2.83
2019-06-19T02:01:33.932Z,3.27
2019-06-19T02:04:32.100Z,3.20
2019-06-19T02:07:30.906Z,3.20
2019-06-19T02:10:28.742Z,3.00
2019-06-19T02:13:27.080Z,3.80
2019-06-19T02:16:25.149Z,3.17
2019-06-19T02:19:27.319Z,2.97
2019-06-19T02:22:22.900Z,3.20
2019-06-19T02:25:20.981Z,3.37
2019-06-19T02:28:20.990Z,3.87
2019-06-19T02:31:21.866Z,2.50
2019-06-19T02:34:21.474Z,3.90
2019-06-19T02:37:17.292Z,2.97
2019-06-19T02:40:15.066Z,3.53
2019-06-19T02:43:13.101Z,3.50
2019-06-19T02:46:11.164Z,3.40
2019-06-19T02:49:09.434Z,3.10
2019-06-19T02:52:07.604Z,3.57
2019-06-19T02:55:05.484Z,3.00
2019-06-19T02:58:03.242Z,3.60
2019-06-19T03:01:10.609Z,2.93
2019-06-19T03:04:01.253Z,2.83
2019-06-19T03:06:59.249Z,3.10
2019-06-19T03:09:57.256Z,4.47
2019-06-19T03:12:55.276Z,2.80
2019-06-19T03:15:53.044Z,3.90
2019-06-19T03:18:51.628Z,3.77
2019-06-19T03:21:49.620Z,3.63
2019-06-19T03:24:47.577Z,3.63
2019-06-19T03:27:45.262Z,3.80
2019-06-19T03:30:43.316Z,4.00
2019-06-19T03:33:41.395Z,3.30
2019-06-19T03:36:39.160Z,3.83
2019-06-19T03:39:37.878Z,3.90
2019-06-19T03:42:35.997Z,3.57
2019-06-19T03:45:34.049Z,3.57
2019-06-19T03:48:31.732Z,2.93
2019-06-19T03:51:29.709Z,3.00
2019-06-19T04:18:19.619Z,3.80
2019-06-19T04:21:18.472Z,3.27
2019-06-19T04:24:17.781Z,3.37
2019-06-19T04:27:17.576Z,3.43
2019-06-19T04:30:18.783Z,3.07
2019-06-19T04:33:18.515Z,3.07
2019-06-19T04:36:17.700Z,3.20
2019-06-19T04:39:16.831Z,3.30
2019-06-19T04:42:15.949Z,2.70
2019-06-19T04:45:15.451Z,2.90
2019-06-19T04:48:14.603Z,2.97
2019-06-19T04:51:14.053Z,3.43
2019-06-19T04:54:13.216Z,3.40
2019-06-19T04:57:12.344Z,3.30
2019-06-19T05:00:11.320Z,3.10
2019-06-19T05:03:10.160Z,3.60
2019-06-19T05:06:09.253Z,3.57
2019-06-19T05:09:08.077Z,3.50
2019-06-19T05:12:06.901Z,3.47
2019-06-19T05:15:06.086Z,3.23
2019-06-19T05:18:05.387Z,3.10
2019-06-19T05:21:04.461Z,3.23
2019-06-19T05:24:03.222Z,3.30
2019-06-19T05:27:02.622Z,3.00
2019-06-19T05:30:02.382Z,3.00
2019-06-19T05:33:01.613Z,3.13
2019-06-19T05:36:01.014Z,3.40
2019-06-19T05:39:00.153Z,3.57
2019-06-19T05:41:59.591Z,3.50
2019-06-19T05:44:58.425Z,3.00
2019-06-19T05:47:57.538Z,2.80
2019-06-19T05:50:56.444Z,3.63
2019-06-19T05:53:55.810Z,3.50
2019-06-19T05:56:54.938Z,3.13
2019-06-19T05:59:55.763Z,3.27
2019-06-19T06:02:54.556Z,3.33
2019-06-19T06:05:53.308Z,3.80
2019-06-19T06:08:52.306Z,4.00
2019-06-19T06:11:51.148Z,2.87
2019-06-19T06:14:50.503Z,3.40
2019-06-19T06:17:49.294Z,2.70
2019-06-19T06:21:19.093Z,2.93
2019-06-19T06:24:18.464Z,2.80
2019-06-19T06:27:17.554Z,3.63
2019-06-19T06:30:16.317Z,3.37
2019-06-19T06:33:15.072Z,3.33
2019-06-19T06:36:14.174Z,3.50
2019-06-19T06:39:13.189Z,3.53
2019-06-19T06:42:11.961Z,3.40
2019-06-19T06:45:11.118Z,3.10
2019-06-19T06:48:09.880Z,3.47
2019-06-19T06:51:09.085Z,3.70
2019-06-19T06:54:08.396Z,3.87
2019-06-19T06:57:07.207Z,3.37
2019-06-19T07:00:07.621Z,3.80
2019-06-19T07:03:06.849Z,3.40
2019-06-19T07:06:05.926Z,3.43
2019-06-19T07:09:06.861Z,3.00
2019-06-19T07:12:09.416Z,3.50
2019-06-19T07:15:06.660Z,3.50
2019-06-19T07:18:06.907Z,3.63
2019-06-19T07:21:06.166Z,4.10
2019-06-19T07:24:05.657Z,3.67
2019-06-19T07:27:04.427Z,3.43
2019-06-19T07:30:03.279Z,3.60
2019-06-19T07:33:02.183Z,3.30
2019-06-19T07:36:01.792Z,3.90
2019-06-19T07:39:01.175Z,3.90
2019-06-19T07:41:59.951Z,3.73
2019-06-19T07:44:59.028Z,3.60
2019-06-19T07:47:58.040Z,3.47
2019-06-19T07:50:57.201Z,3.60
2019-06-19T07:53:56.712Z,3.70
2019-06-19T07:56:54.840Z,3.27
2019-06-19T07:59:53.264Z,3.60
2019-06-19T08:02:51.300Z,3.03
2019-06-19T08:05:49.002Z,3.60
2019-06-19T08:08:47.456Z,3.57
2019-06-19T08:11:45.960Z,3.23
2019-06-19T08:14:43.688Z,3.30
2019-06-19T08:17:41.381Z,3.30
2019-06-19T08:20:39.098Z,3.20
2019-06-19T08:23:36.876Z,2.47
2019-06-19T08:26:34.876Z,2.90
2019-06-19T08:29:32.645Z,3.17
2019-06-19T08:32:30.686Z,2.70
2019-06-19T08:35:29.014Z,3.37
2019-06-19T08:38:26.690Z,3.17
2019-06-19T08:41:25.163Z,2.97
2019-06-19T08:44:22.965Z,3.30
2019-06-19T08:47:20.928Z,3.57
2019-06-19T08:50:18.943Z,3.40
2019-06-19T08:53:17.018Z,3.20
2019-06-19T08:56:15.633Z,3.00
2019-06-19T08:59:13.580Z,3.10
2019-06-19T09:02:11.611Z,3.23
2019-06-19T09:05:09.381Z,2.97
2019-06-19T09:08:07.873Z,3.13
2019-06-19T09:11:11.043Z,3.30
2019-06-19T09:14:09.416Z,3.17
2019-06-19T09:17:07.528Z,3.50
2019-06-19T09:20:05.746Z,3.17
2019-06-19T09:23:03.582Z,3.27
2019-06-19T09:26:01.485Z,3.17
2019-06-19T09:28:59.523Z,2.70
2019-06-19T09:31:57.621Z,3.50
2019-06-19T09:34:55.323Z,2.90
2019-06-19T09:37:53.035Z,3.10
2019-06-19T09:40:51.141Z,2.87
2019-06-19T09:43:48.821Z,3.03
2019-06-19T09:46:46.840Z,2.80
2019-06-19T09:49:44.605Z,2.60
2019-06-19T09:52:42.375Z,2.50
2019-06-19T09:55:40.165Z,2.30
2019-06-19T09:58:37.904Z,2.67
2019-06-19T10:01:35.917Z,2.33
2019-06-19T10:04:34.418Z,2.90
2019-06-19T10:07:32.183Z,2.83
2019-06-19T10:10:31.168Z,2.77
2019-06-19T10:13:29.191Z,2.40
2019-06-19T10:16:27.347Z,2.63
2019-06-19T10:19:25.373Z,2.27
2019-06-19T10:22:23.455Z,2.33
2019-06-19T10:25:21.829Z,2.20
2019-06-19T10:28:19.580Z,2.40
2019-06-19T10:31:17.655Z,1.97
2019-06-19T10:34:16.008Z,1.83
2019-06-19T10:37:14.089Z,1.63
2019-06-19T10:40:12.224Z,2.07
2019-06-19T10:43:10.268Z,2.27
2019-06-19T10:46:08.031Z,2.10
2019-06-19T10:49:05.957Z,2.10
2019-06-19T10:52:04.061Z,1.97
2019-06-19T10:55:02.018Z,2.30
2019-06-19T10:58:00.028Z,1.93
2019-06-19T11:00:57.790Z,2.13
2019-06-19T11:03:55.496Z,1.90
2019-06-19T11:06:53.544Z,2.10
2019-06-19T11:09:51.801Z,1.77
2019-06-19T11:12:50.018Z,1.97
2019-06-19T11:15:48.333Z,2.33
2019-06-19T11:18:46.272Z,2.30
2019-06-19T11:21:44.658Z,2.37
2019-06-19T11:24:42.362Z,2.10
2019-06-19T11:27:40.119Z,2.50
2019-06-19T11:30:37.884Z,1.93
2019-06-19T11:33:35.919Z,2.20
2019-06-19T11:36:33.722Z,2.47
2019-06-19T11:39:31.758Z,2.13
2019-06-19T11:42:30.048Z,2.20
2019-06-19T11:45:27.841Z,2.00
2019-06-19T11:48:25.926Z,2.33
2019-06-19T11:51:24.241Z,2.30
2019-06-19T11:54:22.195Z,2.00
2019-06-19T11:57:20.526Z,2.30
2019-06-19T12:00:18.845Z,2.00
2019-06-19T12:03:26.340Z,2.30
2019-06-19T12:06:16.482Z,3.07
2019-06-19T12:09:14.435Z,3.03
2019-06-19T12:12:12.535Z,2.47
2019-06-19T12:15:10.866Z,2.70
2019-06-19T12:18:09.205Z,2.30
2019-06-19T12:21:07.394Z,2.50
2019-06-19T12:24:05.450Z,2.83
2019-06-19T12:27:03.410Z,2.63
2019-06-19T12:30:06.119Z,2.60
2019-06-19T12:33:00.862Z,2.43
2019-06-19T12:35:58.813Z,2.63
2019-06-19T12:38:56.828Z,2.70
2019-06-19T12:41:54.514Z,2.73
2019-06-19T12:44:52.225Z,2.87
2019-06-19T12:47:50.442Z,3.10
2019-06-19T12:50:48.137Z,2.90
2019-06-19T12:53:46.201Z,2.53
2019-06-19T12:56:43.898Z,2.60
2019-06-19T12:59:41.856Z,2.27
2019-06-19T13:02:40.255Z,2.43
2019-06-19T13:05:38.295Z,2.40
2019-06-19T13:08:36.653Z,3.20
2019-06-19T13:11:34.382Z,2.40
2019-06-19T13:14:32.477Z,2.40
2019-06-19T13:17:30.173Z,2.40
2019-06-19T13:20:28.281Z,2.67
2019-06-19T13:23:26.248Z,2.70
2019-06-19T13:26:24.308Z,2.57
2019-06-19T13:29:22.257Z,2.70
2019-06-19T13:32:19.977Z,3.37
2019-06-19T13:35:17.951Z,3.30
2019-06-19T13:38:15.937Z,2.80
2019-06-19T13:41:21.379Z,3.10
2019-06-19T13:44:14.366Z,3.07
2019-06-19T13:47:12.719Z,3.00
2019-06-19T13:50:11.229Z,3.03
2019-06-19T13:53:08.904Z,3.17
2019-06-19T13:56:06.772Z,3.20
2019-06-19T13:59:04.805Z,2.97
2019-06-19T14:02:02.508Z,2.63
2019-06-19T14:05:02.608Z,3.17
2019-06-19T14:07:59.756Z,2.87
2019-06-19T14:10:57.749Z,3.00
2019-06-19T14:13:55.416Z,2.97
2019-06-19T14:16:53.472Z,2.80
2019-06-19T14:19:51.728Z,2.80
2019-06-19T14:22:49.508Z,3.07
2019-06-19T14:25:47.541Z,3.30
2019-06-19T14:28:45.536Z,3.07
2019-06-19T14:31:43.234Z,2.90
2019-06-19T14:34:40.916Z,2.90
2019-06-19T14:37:39.013Z,3.67
2019-06-19T14:40:37.228Z,3.10
2019-06-19T14:43:35.803Z,3.53
2019-06-19T14:46:33.829Z,2.97
2019-06-19T14:49:31.928Z,3.13
2019-06-19T14:52:29.861Z,3.20
2019-06-19T14:55:27.957Z,3.43
2019-06-19T14:58:25.976Z,3.03
2019-06-19T15:01:24.102Z,2.80
2019-06-19T15:04:22.162Z,3.00
2019-06-19T15:07:20.178Z,3.17
2019-06-19T15:10:18.553Z,2.83
2019-06-19T15:13:16.318Z,3.20
2019-06-19T15:16:15.440Z,2.50
2019-06-19T15:19:13.385Z,2.40
2019-06-19T15:22:11.068Z,3.00
2019-06-19T15:25:08.921Z,2.80
2019-06-19T15:28:07.222Z,3.17
2019-06-19T15:31:05.266Z,2.47
2019-06-19T15:34:03.221Z,3.30
2019-06-19T15:37:00.914Z,2.50
2019-06-19T15:39:58.592Z,2.20
2019-06-19T15:42:56.597Z,2.90
2019-06-19T15:45:54.653Z,3.07
2019-06-19T15:48:52.905Z,2.90
2019-06-19T15:51:50.939Z,2.70
2019-06-19T15:54:49.742Z,3.10
2019-06-19T15:57:47.700Z,2.80
2019-06-19T16:00:45.418Z,2.77
2019-06-19T16:03:43.509Z,2.67
2019-06-19T16:06:41.481Z,2.73
2019-06-19T16:09:39.837Z,2.97
2019-06-19T16:12:37.584Z,2.40
2019-06-19T16:15:35.675Z,3.00
2019-06-19T16:18:36.648Z,2.50
2019-06-19T16:21:33.200Z,2.50
2019-06-19T16:24:30.893Z,2.30
2019-06-19T16:27:28.599Z,2.60
2019-06-19T16:30:26.408Z,2.80
2019-06-19T16:33:24.521Z,2.80
2019-06-19T16:36:22.892Z,2.53
2019-06-19T16:39:20.780Z,2.63
2019-06-19T16:42:18.856Z,2.53
2019-06-19T16:45:16.970Z,2.60
2019-06-19T16:48:16.377Z,2.50
2019-06-19T16:51:14.188Z,2.67
2019-06-19T16:54:11.959Z,2.77
2019-06-19T16:57:10.034Z,2.50
2019-06-19T17:00:08.495Z,2.77
2019-06-19T17:03:06.549Z,2.27
2019-06-19T17:06:04.394Z,2.90
2019-06-19T17:09:04.703Z,2.70
2019-06-19T17:12:02.342Z,2.90
2019-06-19T17:15:01.966Z,2.63
2019-06-19T17:17:59.821Z,2.80
2019-06-19T17:20:57.877Z,2.33
2019-06-19T17:23:55.936Z,2.47
2019-06-19T17:26:54.035Z,2.30
2019-06-19T17:29:51.835Z,2.63
2019-06-19T17:32:49.601Z,2.60
2019-06-19T17:35:47.970Z,2.53
2019-06-19T17:38:46.153Z,2.57
2019-06-19T17:41:43.976Z,2.53
2019-06-19T17:44:42.343Z,3.07
2019-06-19T17:47:40.468Z,2.77
2019-06-19T17:50:38.680Z,2.67
2019-06-19T17:53:37.057Z,2.70
2019-06-19T17:56:35.417Z,2.30
2019-06-19T17:59:33.457Z,2.90
2019-06-19T18:02:31.224Z,2.77
2019-06-19T18:05:29.406Z,2.37
2019-06-19T18:08:27.426Z,2.60
2019-06-19T18:11:25.515Z,2.93
2019-06-19T18:14:23.359Z,2.77
2019-06-19T18:17:22.042Z,3.43
2019-06-19T18:20:20.404Z,3.27
2019-06-19T18:23:18.578Z,3.03
2019-06-19T18:26:16.403Z,3.27
2019-06-19T18:29:14.383Z,3.10
2019-06-19T18:32:12.073Z,3.70
2019-06-19T18:35:10.436Z,3.10
2019-06-19T18:38:08.457Z,3.40
2019-06-19T18:41:06.726Z,3.73
2019-06-19T18:44:05.551Z,3.67
2019-06-19T18:47:03.260Z,3.50
2019-06-19T18:50:01.250Z,3.63
2019-06-19T18:52:59.269Z,3.27
2019-06-19T18:55:56.957Z,3.50
2019-06-19T18:58:54.740Z,4.73
2019-06-19T19:01:52.733Z,3.57
2019-06-19T19:04:50.690Z,3.33
2019-06-19T19:07:48.953Z,3.57
2019-06-19T19:10:47.218Z,3.40
2019-06-19T19:13:45.176Z,3.80
2019-06-19T19:16:43.184Z,4.30
2019-06-19T19:19:40.936Z,3.70
2019-06-19T19:22:39.557Z,3.60
2019-06-19T19:25:37.525Z,3.90
2019-06-19T19:28:35.505Z,4.40
2019-06-19T19:31:33.537Z,3.90
2019-06-19T19:34:31.916Z,3.97
2019-06-19T19:37:30.018Z,4.20
2019-06-19T19:40:30.301Z,4.53
2019-06-19T19:43:28.329Z,3.50
2019-06-19T19:46:26.598Z,3.50
2019-06-19T19:49:24.557Z,4.00
2019-06-19T19:52:22.614Z,3.63
2019-06-19T19:55:20.359Z,4.00
2019-06-19T19:58:18.076Z,3.80
2019-06-19T20:01:16.075Z,3.57
2019-06-19T20:04:13.757Z,3.60
2019-06-19T20:07:11.548Z,3.83
2019-06-19T20:10:09.876Z,4.43
2019-06-19T20:13:07.900Z,3.90
2019-06-19T20:16:06.482Z,3.90
2019-06-19T20:19:04.690Z,3.80
2019-06-19T20:22:02.821Z,4.10
2019-06-19T20:25:00.798Z,4.30
2019-06-19T20:27:58.498Z,4.10
2019-06-19T20:30:56.507Z,4.90
2019-06-19T20:33:54.209Z,4.30
2019-06-19T20:36:51.904Z,4.30
2019-06-19T20:39:49.887Z,4.87
2019-06-19T20:42:47.585Z,4.67
2019-06-19T20:45:45.536Z,4.10
2019-06-19T20:48:43.648Z,4.57
2019-06-19T20:51:41.669Z,4.20
2019-06-19T20:54:39.389Z,4.60
2019-06-19T20:57:37.416Z,4.70
2019-06-19T21:00:35.351Z,4.50
2019-06-19T21:03:33.128Z,4.10
2019-06-19T21:06:31.181Z,4.23
2019-06-19T21:09:29.393Z,4.80
2019-06-19T21:12:27.249Z,4.80
2019-06-19T21:15:25.128Z,5.10
2019-06-19T21:18:22.853Z,4.60
2019-06-19T21:21:20.881Z,4.90
2019-06-19T21:24:18.887Z,4.33
2019-06-19T21:27:16.606Z,4.50
2019-06-19T21:30:15.005Z,4.90
2019-06-19T21:33:13.371Z,8.73
2019-06-19T21:36:11.141Z,9.17
2019-06-19T21:39:09.292Z,9.27
2019-06-19T21:42:07.003Z,11.93
2019-06-19T21:45:07.520Z,8.50
2019-06-19T21:48:04.623Z,5.30
2019-06-19T21:51:02.660Z,5.87
2019-06-19T21:54:00.617Z,5.30
2019-06-19T21:56:58.319Z,5.40
2019-06-19T21:59:56.678Z,5.20
2019-06-19T22:02:54.683Z,5.33
2019-06-19T22:05:52.369Z,8.00
2019-06-19T22:08:50.164Z,6.70
2019-06-19T22:15:39.743Z,5.70
2019-06-19T22:18:37.516Z,5.10
2019-06-19T22:21:35.209Z,5.27
2019-06-19T22:24:33.300Z,4.90
2019-06-19T22:27:31.205Z,5.87
2019-06-19T22:30:48.255Z,5.47
2019-06-19T22:33:46.304Z,5.00
2019-06-19T22:36:44.061Z,5.20
2019-06-19T22:39:42.187Z,5.50
2019-06-19T22:42:39.872Z,4.77
2019-06-19T22:45:37.759Z,5.03
2019-06-19T22:48:35.783Z,6.20
2019-06-19T22:51:33.530Z,4.87
2019-06-19T22:54:31.509Z,5.57
2019-06-19T22:57:29.203Z,6.23
2019-06-19T23:00:27.422Z,6.87
2019-06-19T23:03:53.554Z,6.80
2019-06-19T23:06:51.253Z,6.10
2019-06-19T23:09:48.926Z,6.70
2019-06-19T23:12:46.615Z,5.83
2019-06-19T23:15:44.380Z,5.90
2019-06-19T23:18:42.420Z,5.80
2019-06-19T23:21:40.644Z,5.70
2019-06-19T23:24:38.692Z,5.53
2019-06-19T23:27:36.656Z,5.77
2019-06-19T23:30:34.717Z,5.23
2019-06-19T23:33:32.482Z,6.03
2019-06-19T23:36:30.163Z,5.70
2019-06-19T23:39:28.185Z,5.20
2019-06-19T23:42:26.237Z,5.60
2019-06-19T23:45:23.956Z,6.20
2019-06-19T23:48:22.054Z,5.93
2019-06-19T23:51:20.017Z,4.40
2019-06-19T23:54:17.724Z,5.60
2019-06-19T23:57:16.026Z,4.57
